Time;durP1;ratioP1;P1;durP2;ratioP2;P2;SDS_P1;SDS_P2;PMS_P1;PMS_P2;Temp;Humidity;BMP_temperature;BMP_pressure;BME280_temperature;BME280_humidity;BME280_pressure;Samples;Min_cycle;Max_cycle;Signal;HPM_P1;HPM_P2
2022/05/21 00:00:36;;;;;;;7.13;4.80;;;;;;;;;;5054492;28;20048;-46
2022/05/21 00:03:03;;;;;;;9.07;5.20;;;;;;;;;;5054983;28;20033;-46
2022/05/21 00:05:30;;;;;;;7.75;4.80;;;;;;;;;;5055236;28;20052;-46
2022/05/21 00:07:56;;;;;;;6.10;5.05;;;;;;;;;;5054871;28;20028;-46
2022/05/21 00:10:26;;;;;;;5.38;4.80;;;;;;;;;;5054789;28;20377;-48
2022/05/21 00:12:52;;;;;;;;;;;;;;;;;;5055454;28;20471;-47
2022/05/21 00:15:21;;;;;;;9.52;5.22;;;;;;;;;;5054799;28;19924;-48
2022/05/21 00:17:47;;;;;;;6.57;4.90;;;;;;;;;;5054564;28;20465;-48
2022/05/21 00:22:57;;;;;;;5.72;5.10;;;;;;;;;;5054819;28;20585;-47
2022/05/21 00:25:23;;;;;;;10.15;4.93;;;;;;;;;;5054442;28;20013;-48
2022/05/21 00:27:49;;;;;;;5.90;5.00;;;;;;;;;;5054711;28;20028;-51
2022/05/21 00:30:15;;;;;;;5.03;4.53;;;;;;;;;;5054450;28;20061;-49
2022/05/21 00:32:40;;;;;;;6.97;5.35;;;;;;;;;;5054295;28;20052;-49
2022/05/21 00:35:07;;;;;;;5.43;4.85;;;;;;;;;;5054231;28;20033;-49
2022/05/21 00:37:33;;;;;;;6.82;4.80;;;;;;;;;;5054298;28;20529;-47
2022/05/21 00:39:58;;;;;;;6.43;4.82;;;;;;;;;;5054087;28;20060;-49
2022/05/21 00:42:24;;;;;;;6.75;4.93;;;;;;;;;;5054399;28;20021;-49
2022/05/21 00:44:49;;;;;;;8.10;4.30;;;;;;;;;;5053962;28;20029;-48
2022/05/21 00:47:15;;;;;;;6.18;4.47;;;;;;;;;;5054025;28;20017;-49
2022/05/21 00:49:40;;;;;;;6.97;4.88;;;;;;;;;;5053910;28;20033;-47
2022/05/21 00:52:17;;;;;;;5.05;4.55;;;;;;;;;;5053811;28;20100;-47
2022/05/21 00:54:51;;;;;;;5.72;4.55;;;;;;;;;;5053874;28;20029;-47
2022/05/21 00:57:17;;;;;;;8.75;4.97;;;;;;;;;;5053992;28;20032;-48
2022/05/21 00:59:51;;;;;;;6.25;4.75;;;;;;;;;;5053562;28;20045;-48
2022/05/21 01:02:28;;;;;;;6.32;4.82;;;;;;;;;;5053139;28;20461;-47
2022/05/21 01:04:59;;;;;;;7.05;4.70;;;;;;;;;;5053686;28;20187;-48
2022/05/21 01:07:25;;;;;;;6.82;4.82;;;;;;;;;;5053496;28;20488;-48
2022/05/21 01:09:55;;;;;;;5.45;4.93;;;;;;;;;;5053858;28;20029;-48
2022/05/21 01:12:24;;;;;;;8.50;5.18;;;;;;;;;;5053487;28;20044;-49
2022/05/21 01:14:52;;;;;;;9.57;5.20;;;;;;;;;;5053472;28;20040;-50
2022/05/21 01:17:20;;;;;;;5.75;5.15;;;;;;;;;;5053489;28;20075;-47
2022/05/21 01:20:03;;;;;;;7.22;5.18;;;;;;;;;;5053329;28;20017;-50
2022/05/21 01:22:30;;;;;;;8.57;5.28;;;;;;;;;;5053366;28;20021;-47
2022/05/21 01:24:56;;;;;;;6.60;5.00;;;;;;;;;;5053300;28;20031;-47
2022/05/21 01:27:24;;;;;;;5.60;4.75;;;;;;;;;;5053068;28;20021;-49
2022/05/21 01:29:51;;;;;;;7.60;5.13;;;;;;;;;;5053430;28;20025;-47
2022/05/21 01:32:18;;;;;;;6.68;4.90;;;;;;;;;;5053276;28;20432;-47
2022/05/21 01:34:44;;;;;;;5.88;4.90;;;;;;;;;;5052956;28;20112;-49
2022/05/21 01:37:10;;;;;;;7.40;5.20;;;;;;;;;;5052967;28;20111;-49
2022/05/21 01:39:36;;;;;;;9.32;5.43;;;;;;;;;;5053194;28;20383;-47
2022/05/21 01:42:02;;;;;;;6.25;5.00;;;;;;;;;;5053266;28;20096;-47
2022/05/21 01:44:40;;;;;;;5.97;4.70;;;;;;;;;;5052941;28;20419;-50
2022/05/21 01:47:13;;;;;;;9.20;5.47;;;;;;;;;;5052999;28;20499;-48
2022/05/21 01:49:39;;;;;;;7.15;5.22;;;;;;;;;;5053088;28;20032;-48
2022/05/21 01:52:07;;;;;;;12.63;5.40;;;;;;;;;;5052916;28;20052;-47
2022/05/21 01:54:33;;;;;;;6.13;5.03;;;;;;;;;;5052697;28;20035;-47
2022/05/21 01:56:59;;;;;;;10.40;5.65;;;;;;;;;;5052602;28;20029;-49
2022/05/21 01:59:26;;;;;;;7.78;5.50;;;;;;;;;;5052672;28;20103;-48
2022/05/21 02:01:52;;;;;;;7.43;5.55;;;;;;;;;;5052618;28;20025;-48
2022/05/21 02:04:18;;;;;;;6.22;5.63;;;;;;;;;;5052947;28;20025;-48
2022/05/21 02:06:44;;;;;;;9.18;5.25;;;;;;;;;;5052633;28;20028;-48
2022/05/21 02:09:11;;;;;;;6.80;5.53;;;;;;;;;;5052747;28;20516;-49
2022/05/21 02:11:37;;;;;;;7.78;5.60;;;;;;;;;;5052789;28;20033;-47
2022/05/21 02:14:02;;;;;;;9.55;5.30;;;;;;;;;;5051892;28;20020;-48
2022/05/21 02:16:28;;;;;;;7.50;5.43;;;;;;;;;;5052671;28;20033;-48
2022/05/21 02:18:54;;;;;;;9.43;5.85;;;;;;;;;;5052356;28;20052;-48
2022/05/21 02:21:19;;;;;;;9.02;5.63;;;;;;;;;;5052225;28;20116;-47
2022/05/21 02:23:45;;;;;;;6.32;5.20;;;;;;;;;;5052601;28;20075;-48
2022/05/21 02:26:11;;;;;;;7.70;5.60;;;;;;;;;;5052586;28;20167;-48
2022/05/21 02:28:36;;;;;;;9.07;5.78;;;;;;;;;;5052392;28;20478;-47
2022/05/21 02:31:02;;;;;;;5.82;5.22;;;;;;;;;;5052497;28;20100;-49
2022/05/21 02:33:28;;;;;;;9.23;5.05;;;;;;;;;;5052219;28;20033;-47
2022/05/21 02:35:53;;;;;;;6.07;5.15;;;;;;;;;;5052421;28;20025;-48
2022/05/21 02:41:09;;;;;;;9.02;5.20;;;;;;;;;;5052135;28;20500;-47
2022/05/21 02:43:34;;;;;;;7.03;5.30;;;;;;;;;;5052241;28;20032;-47
2022/05/21 02:46:00;;;;;;;7.80;5.30;;;;;;;;;;5052101;28;20021;-49
2022/05/21 02:48:28;;;;;;;7.25;5.55;;;;;;;;;;5052468;28;20032;-48
2022/05/21 02:50:54;;;;;;;7.18;4.78;;;;;;;;;;5051999;28;20483;-47
2022/05/21 02:53:19;;;;;;;10.38;5.65;;;;;;;;;;5052358;28;20551;-47
2022/05/21 02:55:46;;;;;;;7.15;5.13;;;;;;;;;;5052351;28;20095;-48
2022/05/21 02:58:12;;;;;;;5.95;4.95;;;;;;;;;;5052059;28;20518;-48
2022/05/21 03:00:38;;;;;;;7.97;5.85;;;;;;;;;;5051791;28;20053;-47
2022/05/21 03:03:03;;;;;;;6.18;5.30;;;;;;;;;;5052003;28;20098;-48
2022/05/21 03:05:31;;;;;;;6.20;5.60;;;;;;;;;;5051978;28;20481;-49
2022/05/21 03:07:57;;;;;;;10.55;4.68;;;;;;;;;;5052184;28;20041;-47
2022/05/21 03:10:25;;;;;;;6.20;4.88;;;;;;;;;;5052226;28;20056;-48
2022/05/21 03:12:56;;;;;;;10.40;4.68;;;;;;;;;;5052164;28;20013;-46
2022/05/21 03:15:28;;;;;;;7.07;4.95;;;;;;;;;;5052110;28;20025;-47
2022/05/21 03:17:54;;;;;;;5.65;4.50;;;;;;;;;;5052158;28;20040;-49
2022/05/21 03:20:21;;;;;;;5.07;4.57;;;;;;;;;;5052010;28;20481;-49
2022/05/21 03:22:47;;;;;;;8.65;4.82;;;;;;;;;;5051831;28;20414;-51
2022/05/21 03:25:13;;;;;;;8.07;5.15;;;;;;;;;;5052751;28;20021;-48
2022/05/21 03:27:40;;;;;;;9.40;6.10;;;;;;;;;;5055738;28;20154;-47
2022/05/21 03:30:08;;;;;;;6.25;4.95;;;;;;;;;;5055635;28;20386;-48
2022/05/21 03:32:34;;;;;;;5.80;5.03;;;;;;;;;;5055753;28;20104;-47
2022/05/21 03:34:59;;;;;;;7.68;6.07;;;;;;;;;;5055492;28;20507;-47
2022/05/21 03:37:25;;;;;;;9.00;5.93;;;;;;;;;;5055639;28;20064;-47
2022/05/21 03:39:51;;;;;;;7.60;5.53;;;;;;;;;;5055195;28;20396;-48
2022/05/21 03:42:17;;;;;;;6.60;5.18;;;;;;;;;;5037753;28;20083;-47
2022/05/21 03:44:43;;;;;;;8.65;5.22;;;;;;;;;;5055065;28;20025;-47
2022/05/21 03:47:10;;;;;;;6.45;4.35;;;;;;;;;;5055416;28;20033;-48
2022/05/21 03:49:36;;;;;;;6.13;4.80;;;;;;;;;;5055215;28;20082;-48
2022/05/21 03:52:01;;;;;;;8.05;5.15;;;;;;;;;;5054835;28;20021;-49
2022/05/21 03:54:26;;;;;;;5.53;4.50;;;;;;;;;;5055120;28;20108;-47
2022/05/21 03:56:54;;;;;;;6.78;4.38;;;;;;;;;;5055010;28;20029;-50
2022/05/21 03:59:20;;;;;;;5.78;4.10;;;;;;;;;;5054690;28;20025;-48
2022/05/21 04:01:46;;;;;;;6.05;3.85;;;;;;;;;;5054975;28;20040;-49
2022/05/21 04:04:11;;;;;;;5.40;4.43;;;;;;;;;;5054764;28;20366;-48
2022/05/21 04:06:37;;;;;;;5.15;4.30;;;;;;;;;;5054846;28;20029;-48
2022/05/21 04:09:03;;;;;;;5.35;4.50;;;;;;;;;;5054969;28;20036;-47
2022/05/21 04:11:28;;;;;;;7.45;4.03;;;;;;;;;;5054755;28;20025;-47
2022/05/21 04:13:57;;;;;;;10.30;5.28;;;;;;;;;;5055030;28;20027;-47
2022/05/21 04:16:22;;;;;;;6.40;5.07;;;;;;;;;;5054679;28;20025;-47
2022/05/21 04:18:48;;;;;;;6.35;4.85;;;;;;;;;;5054544;28;20032;-49
2022/05/21 04:21:13;;;;;;;5.40;4.60;;;;;;;;;;5054574;28;20029;-46
2022/05/21 04:23:39;;;;;;;7.32;4.40;;;;;;;;;;5054764;28;20469;-48
2022/05/21 04:26:04;;;;;;;7.85;4.45;;;;;;;;;;5054645;28;20498;-47
2022/05/21 04:28:30;;;;;;;7.05;4.28;;;;;;;;;;5054671;28;20053;-48
2022/05/21 04:30:55;;;;;;;6.53;4.07;;;;;;;;;;5054258;28;20021;-47
2022/05/21 04:33:21;;;;;;;5.28;4.20;;;;;;;;;;5054152;28;20021;-47
2022/05/21 04:38:34;;;;;;;4.97;4.47;;;;;;;;;;5053768;28;20047;-47
2022/05/21 04:41:00;;;;;;;6.38;3.88;;;;;;;;;;5054048;28;20083;-47
2022/05/21 04:43:25;;;;;;;7.40;4.03;;;;;;;;;;5036294;28;20021;-47
2022/05/21 04:45:51;;;;;;;2.55;2.25;;;;;;;;;;5036218;28;20116;-49
2022/05/21 04:48:16;;;;;;;5.18;3.00;;;;;;;;;;5054265;28;20025;-51
2022/05/21 04:50:42;;;;;;;6.93;4.55;;;;;;;;;;5053981;28;20025;-46
2022/05/21 04:53:08;;;;;;;2.83;2.38;;;;;;;;;;5053947;28;20021;-47
2022/05/21 04:55:33;;;;;;;3.95;2.92;;;;;;;;;;5053732;28;20532;-49
2022/05/21 04:57:59;;;;;;;2.97;2.65;;;;;;;;;;5054131;28;20029;-53
2022/05/21 05:00:25;;;;;;;3.10;2.70;;;;;;;;;;5053531;28;20503;-52
2022/05/21 05:02:51;;;;;;;7.75;4.65;;;;;;;;;;5053543;28;20127;-49
2022/05/21 05:05:17;;;;;;;7.95;4.18;;;;;;;;;;5053588;28;20156;-48
2022/05/21 05:07:42;;;;;;;4.75;2.88;;;;;;;;;;5053607;28;20469;-49
2022/05/21 05:10:08;;;;;;;7.10;4.18;;;;;;;;;;5053689;28;20162;-51
2022/05/21 05:12:35;;;;;;;5.78;3.53;;;;;;;;;;5035640;28;20025;-48
2022/05/21 05:15:01;;;;;;;5.93;4.00;;;;;;;;;;5053333;28;20025;-48
2022/05/21 05:17:27;;;;;;;3.55;2.10;;;;;;;;;;5053374;28;20033;-50
2022/05/21 05:19:54;;;;;;;6.75;3.50;;;;;;;;;;5052931;28;20031;-48
2022/05/21 05:22:21;;;;;;;8.45;3.08;;;;;;;;;;5052998;28;20468;-48
2022/05/21 05:24:46;;;;;;;6.47;3.33;;;;;;;;;;5052922;28;20024;-52
2022/05/21 05:27:12;;;;;;;5.18;3.58;;;;;;;;;;5053104;28;20051;-49
2022/05/21 05:29:38;;;;;;;5.38;3.00;;;;;;;;;;5053023;28;20151;-49
2022/05/21 05:32:05;;;;;;;5.97;3.20;;;;;;;;;;5053340;28;20029;-48
2022/05/21 05:34:30;;;;;;;3.33;2.90;;;;;;;;;;5053002;28;20025;-49
2022/05/21 05:36:56;;;;;;;10.00;3.40;;;;;;;;;;5053095;28;20033;-50
2022/05/21 05:39:22;;;;;;;6.80;3.17;;;;;;;;;;5053354;28;20017;-48
2022/05/21 05:41:47;;;;;;;5.72;3.40;;;;;;;;;;5052933;28;20468;-48
2022/05/21 05:44:13;;;;;;;9.02;3.50;;;;;;;;;;5053020;28;20025;-48
2022/05/21 05:46:38;;;;;;;8.43;4.30;;;;;;;;;;5035120;28;20037;-47
2022/05/21 05:49:05;;;;;;;5.10;3.33;;;;;;;;;;5052434;28;20029;-48
2022/05/21 05:51:32;;;;;;;15.18;8.13;;;;;;;;;;5052794;28;20491;-49
2022/05/21 05:53:57;;;;;;;20.02;9.60;;;;;;;;;;5052728;28;20037;-52
2022/05/21 05:56:23;;;;;;;16.05;8.38;;;;;;;;;;5052653;28;20032;-49
2022/05/21 06:01:33;;;;;;;11.68;5.80;;;;;;;;;;5052107;28;20098;-49
2022/05/21 06:03:58;;;;;;;12.48;7.38;;;;;;;;;;5052733;28;20048;-47
2022/05/21 06:06:24;;;;;;;14.82;7.43;;;;;;;;;;5052867;28;20040;-49
2022/05/21 06:08:51;;;;;;;12.40;6.47;;;;;;;;;;5052607;28;20530;-51
2022/05/21 06:11:17;;;;;;;11.05;6.38;;;;;;;;;;5034977;28;20029;-50
2022/05/21 06:13:43;;;;;;;23.90;8.20;;;;;;;;;;5052261;28;20469;-47
2022/05/21 06:16:09;;;;;;;23.13;10.50;;;;;;;;;;5052386;28;20599;-50
2022/05/21 06:18:34;;;;;;;15.07;6.53;;;;;;;;;;5052186;28;20107;-49
2022/05/21 06:21:05;;;;;;;14.15;5.75;;;;;;;;;;5052258;28;20029;-50
2022/05/21 06:23:33;;;;;;;15.38;5.97;;;;;;;;;;5052456;28;20484;-53
2022/05/21 06:26:00;;;;;;;12.98;7.50;;;;;;;;;;5052318;28;20108;-48
2022/05/21 06:28:26;;;;;;;16.25;7.38;;;;;;;;;;5052585;28;20099;-49
2022/05/21 06:30:52;;;;;;;6.53;3.80;;;;;;;;;;5052497;28;20017;-53
2022/05/21 06:33:22;;;;;;;5.57;3.33;;;;;;;;;;5051914;28;20281;-50
2022/05/21 06:35:50;;;;;;;4.75;2.95;;;;;;;;;;5051965;28;20029;-49
2022/05/21 06:38:16;;;;;;;7.47;4.32;;;;;;;;;;5052282;28;20021;-49
2022/05/21 06:40:42;;;;;;;15.50;3.42;;;;;;;;;;5052246;28;20029;-49
2022/05/21 06:43:07;;;;;;;11.63;4.70;;;;;;;;;;5052357;28;20024;-51
2022/05/21 06:45:34;;;;;;;14.40;5.97;;;;;;;;;;5052334;28;20530;-49
2022/05/21 06:48:05;;;;;;;7.07;3.47;;;;;;;;;;5052021;28;20028;-50
2022/05/21 06:50:31;;;;;;;7.78;3.65;;;;;;;;;;5052253;28;20048;-50
2022/05/21 06:52:57;;;;;;;11.15;4.05;;;;;;;;;;5052327;28;20363;-50
2022/05/21 06:55:23;;;;;;;8.45;3.70;;;;;;;;;;5052017;28;20025;-50
2022/05/21 06:57:50;;;;;;;10.43;3.50;;;;;;;;;;5052226;28;20489;-48
2022/05/21 07:00:17;;;;;;;6.90;3.08;;;;;;;;;;5052688;28;20533;-50
2022/05/21 07:02:44;;;;;;;10.25;3.33;;;;;;;;;;5055834;28;20033;-50
2022/05/21 07:07:54;;;;;;;5.07;3.10;;;;;;;;;;5055974;28;20040;-50
2022/05/21 07:10:25;;;;;;;5.75;3.30;;;;;;;;;;5055674;28;20052;-48
2022/05/21 07:12:51;;;;;;;4.85;2.58;;;;;;;;;;5055887;28;20048;-52
2022/05/21 07:15:18;;;;;;;6.05;3.17;;;;;;;;;;5055578;28;20032;-49
2022/05/21 07:17:45;;;;;;;3.08;2.40;;;;;;;;;;5056123;28;20021;-53
2022/05/21 07:20:15;;;;;;;7.93;3.33;;;;;;;;;;5055859;28;20025;-50
2022/05/21 07:22:47;;;;;;;13.25;6.68;;;;;;;;;;5056000;28;20075;-49
2022/05/21 07:25:15;;;;;;;7.05;3.45;;;;;;;;;;5055930;28;20052;-51
2022/05/21 07:27:41;;;;;;;11.43;5.28;;;;;;;;;;5055534;28;20053;-49
2022/05/21 07:30:08;;;;;;;8.35;4.07;;;;;;;;;;5054971;28;20067;-51
2022/05/21 07:32:34;;;;;;;5.63;3.10;;;;;;;;;;5055249;28;20029;-49
2022/05/21 07:35:03;;;;;;;20.83;10.50;;;;;;;;;;5055407;28;20113;-50
2022/05/21 07:37:28;;;;;;;7.82;3.40;;;;;;;;;;5037631;28;20165;-51
2022/05/21 07:39:57;;;;;;;2.85;2.15;;;;;;;;;;5054671;28;20033;-50
2022/05/21 07:42:22;;;;;;;4.18;2.70;;;;;;;;;;5037669;28;20037;-52
2022/05/21 07:44:48;;;;;;;3.58;2.30;;;;;;;;;;5055299;28;20048;-50
2022/05/21 07:47:14;;;;;;;5.97;2.83;;;;;;;;;;5055048;28;20033;-50
2022/05/21 07:49:40;;;;;;;3.05;2.20;;;;;;;;;;5049105;28;20025;-50
2022/05/21 07:52:06;;;;;;;4.30;2.25;;;;;;;;;;5054947;28;20043;-51
2022/05/21 07:54:31;;;;;;;4.72;1.92;;;;;;;;;;5054907;28;20036;-48
2022/05/21 07:56:57;;;;;;;4.25;2.03;;;;;;;;;;5055086;28;20036;-50
2022/05/21 07:59:23;;;;;;;2.40;2.00;;;;;;;;;;5054632;28;20561;-52
2022/05/21 08:01:48;;;;;;;4.88;2.08;;;;;;;;;;5052296;28;20187;-49
2022/05/21 08:04:17;;;;;;;4.60;2.17;;;;;;;;;;5047935;28;20042;-51
2022/05/21 08:06:42;;;;;;;8.93;2.20;;;;;;;;;;5043501;28;20033;-50
2022/05/21 08:09:08;;;;;;;5.30;2.13;;;;;;;;;;5044427;28;20495;-50
2022/05/21 08:11:34;;;;;;;2.42;2.22;;;;;;;;;;5041587;28;20032;-49
2022/05/21 08:13:59;;;;;;;4.18;2.45;;;;;;;;;;5043231;28;20511;-53
2022/05/21 08:16:25;;;;;;;5.75;2.35;;;;;;;;;;5034646;28;20033;-50
2022/05/21 08:18:50;;;;;;;5.10;2.10;;;;;;;;;;5034595;28;20108;-51
2022/05/21 08:21:16;;;;;;;3.85;2.20;;;;;;;;;;5034879;28;20064;-49
2022/05/21 08:26:58;;;;;;;3.33;2.00;;;;;;;;;;5001022;28;20041;-51
2022/05/21 08:29:32;;;;;;;3.90;1.58;;;;;;;;;;5034686;28;20026;-54
2022/05/21 08:31:58;;;;;;;6.30;1.80;;;;;;;;;;5034593;28;20139;-51
2022/05/21 08:34:25;;;;;;;9.98;2.15;;;;;;;;;;5045886;28;20029;-52
2022/05/21 08:36:51;;;;;;;2.55;1.85;;;;;;;;;;5030829;28;20033;-49
2022/05/21 08:39:18;;;;;;;5.97;2.08;;;;;;;;;;5041571;28;20107;-51
2022/05/21 08:41:56;;;;;;;4.55;2.00;;;;;;;;;;5014423;28;20466;-49
2022/05/21 08:44:28;;;;;;;2.50;1.90;;;;;;;;;;5014458;28;20108;-51
2022/05/21 08:46:59;;;;;;;3.45;1.90;;;;;;;;;;5014655;28;20300;-53
2022/05/21 08:49:57;;;;;;;2.60;1.80;;;;;;;;;;5014560;28;20025;-49
2022/05/21 08:52:29;;;;;;;6.85;1.75;;;;;;;;;;5014265;28;20033;-48
2022/05/21 08:54:58;;;;;;;5.07;1.90;;;;;;;;;;5014516;28;20052;-51
2022/05/21 08:57:44;;;;;;;13.88;2.50;;;;;;;;;;5014184;28;20028;-49
2022/05/21 09:00:14;;;;;;;2.78;1.80;;;;;;;;;;5013959;28;20099;-49
2022/05/21 09:02:40;;;;;;;2.47;1.88;;;;;;;;;;5038122;28;20037;-52
2022/05/21 09:05:09;;;;;;;3.25;1.88;;;;;;;;;;5043219;28;20164;-49
2022/05/21 09:07:54;;;;;;;3.75;1.80;;;;;;;;;;5040507;28;20025;-50
2022/05/21 09:10:35;;;;;;;9.75;1.80;;;;;;;;;;5039414;28;20060;-51
2022/05/21 09:13:28;;;;;;;4.45;2.22;;;;;;;;;;5044029;28;20029;-48
2022/05/21 09:18:37;;;;;;;5.50;1.55;;;;;;;;;;5034887;28;20056;-48
2022/05/21 09:21:10;;;;;;;10.73;2.00;;;;;;;;;;5032000;28;20045;-47
2022/05/21 09:23:53;;;;;;;4.22;1.50;;;;;;;;;;5032960;28;20033;-48
2022/05/21 09:26:22;;;;;;;10.30;3.35;;;;;;;;;;5033574;28;20036;-52
2022/05/21 09:28:48;;;;;;;7.43;1.90;;;;;;;;;;5033197;28;20065;-49
2022/05/21 09:31:23;;;;;;;3.55;1.65;;;;;;;;;;5033508;28;20029;-51
2022/05/21 09:33:49;;;;;;;6.25;2.20;;;;;;;;;;5033537;28;20025;-51
2022/05/21 09:36:30;;;;;;;7.53;1.92;;;;;;;;;;5033406;28;20021;-48
2022/05/21 09:38:56;;;;;;;6.88;2.05;;;;;;;;;;5033325;28;20025;-50
2022/05/21 09:41:26;;;;;;;5.28;2.50;;;;;;;;;;5033117;28;20488;-55
2022/05/21 09:47:14;;;;;;;14.80;2.40;;;;;;;;;;5052873;28;20027;-56
2022/05/21 09:49:41;;;;;;;21.15;3.72;;;;;;;;;;5052755;28;20025;-52
2022/05/21 09:52:26;;;;;;;12.63;2.90;;;;;;;;;;5050696;28;20029;-49
2022/05/21 09:54:51;;;;;;;5.40;2.67;;;;;;;;;;5050864;28;20032;-51
2022/05/21 09:57:30;;;;;;;1.90;1.60;;;;;;;;;;5051300;28;20036;-50
2022/05/21 10:00:14;;;;;;;3.75;1.50;;;;;;;;;;5050854;28;20116;-51
2022/05/21 10:02:45;;;;;;;2.65;1.75;;;;;;;;;;5036545;28;20495;-50
2022/05/21 10:05:16;;;;;;;6.50;2.40;;;;;;;;;;5031311;28;20052;-55
2022/05/21 10:11:03;;;;;;;3.90;1.80;;;;;;;;;;5031333;28;20083;-50
2022/05/21 10:13:44;;;;;;;2.83;1.50;;;;;;;;;;5024444;28;20132;-51
2022/05/21 10:16:35;;;;;;;2.33;1.63;;;;;;;;;;5032821;28;20404;-53
2022/05/21 10:19:06;;;;;;;7.22;2.13;;;;;;;;;;5032353;28;20385;-51
2022/05/21 10:21:57;;;;;;;7.82;1.63;;;;;;;;;;5032719;28;20079;-55
2022/05/21 10:25:03;;;;;;;5.18;1.73;;;;;;;;;;5037535;28;20030;-53
2022/05/21 10:27:43;;;;;;;4.65;2.05;;;;;;;;;;5011899;28;20048;-52
2022/05/21 10:30:55;;;;;;;4.35;1.73;;;;;;;;;;5012930;28;20029;-55
2022/05/21 10:33:40;;;;;;;14.98;2.33;;;;;;;;;;4966045;28;20559;-57
2022/05/21 10:36:21;;;;;;;3.72;2.50;;;;;;;;;;5012109;28;20026;-53
2022/05/21 10:39:10;;;;;;;2.83;1.88;;;;;;;;;;5012450;28;20773;-52
2022/05/21 10:42:05;;;;;;;6.07;1.73;;;;;;;;;;5021598;28;20052;-53
2022/05/21 10:44:48;;;;;;;2.50;1.85;;;;;;;;;;5029282;28;20546;-55
2022/05/21 10:47:29;;;;;;;5.78;1.73;;;;;;;;;;5041097;28;20052;-53
2022/05/21 10:50:10;;;;;;;6.72;2.03;;;;;;;;;;5040255;28;20025;-52
2022/05/21 10:53:12;;;;;;;4.00;1.42;;;;;;;;;;5040609;28;20068;-52
2022/05/21 10:56:09;;;;;;;5.53;1.50;;;;;;;;;;5043808;28;20037;-51
2022/05/21 10:58:56;;;;;;;6.88;1.33;;;;;;;;;;5011161;28;20052;-54
2022/05/21 11:01:33;;;;;;;3.67;1.30;;;;;;;;;;5039572;28;20512;-52
2022/05/21 11:04:10;;;;;;;12.55;2.40;;;;;;;;;;5030413;28;20072;-53
2022/05/21 11:06:51;;;;;;;2.38;1.35;;;;;;;;;;5030566;28;20112;-52
2022/05/21 11:09:31;;;;;;;4.28;1.50;;;;;;;;;;5034782;28;20033;-51
2022/05/21 11:12:26;;;;;;;3.83;1.52;;;;;;;;;;5012317;28;20072;-54
2022/05/21 11:15:22;;;;;;;2.00;1.77;;;;;;;;;;5012545;28;20034;-53
2022/05/21 11:18:18;;;;;;;2.75;1.60;;;;;;;;;;5012217;28;20109;-51
2022/05/21 11:20:51;;;;;;;1.83;1.60;;;;;;;;;;5009087;28;20501;-50
2022/05/21 11:23:26;;;;;;;3.67;2.65;;;;;;;;;;5012143;28;20068;-53
2022/05/21 11:26:35;;;;;;;6.15;2.22;;;;;;;;;;5012419;28;20018;-53
2022/05/21 11:29:05;;;;;;;;;;;;;;;;;;4951872;29;20031;-54
2022/05/21 11:37:23;;;;;;;5.97;1.90;;;;;;;;;;5012190;28;20053;-51
2022/05/21 11:39:51;;;;;;;3.97;1.70;;;;;;;;;;5011988;28;20030;-51
2022/05/21 11:42:24;;;;;;;1.92;1.73;;;;;;;;;;5011984;28;20022;-54
2022/05/21 11:45:02;;;;;;;2.50;1.60;;;;;;;;;;5012207;28;20168;-54
2022/05/21 11:47:27;;;;;;;6.18;1.70;;;;;;;;;;5014684;28;20382;-54
2022/05/21 11:49:55;;;;;;;7.13;1.77;;;;;;;;;;5015713;28;20026;-52
2022/05/21 11:52:27;;;;;;;5.40;1.90;;;;;;;;;;5015334;28;20033;-50
2022/05/21 11:55:10;;;;;;;3.55;1.60;;;;;;;;;;5015655;28;20041;-53
2022/05/21 11:57:45;;;;;;;7.22;1.70;;;;;;;;;;5015293;28;20044;-54
2022/05/21 12:00:24;;;;;;;7.65;1.50;;;;;;;;;;4997629;28;20061;-54
2022/05/21 12:03:04;;;;;;;2.95;1.60;;;;;;;;;;5015119;28;20058;-55
2022/05/21 12:05:37;;;;;;;4.78;1.85;;;;;;;;;;5015095;28;20529;-49
2022/05/21 12:08:17;;;;;;;3.75;1.73;;;;;;;;;;5015376;28;20032;-50
2022/05/21 12:11:02;;;;;;;5.70;1.65;;;;;;;;;;5015135;28;20052;-50
2022/05/21 12:13:33;;;;;;;2.72;1.50;;;;;;;;;;5014972;28;20092;-55
2022/05/21 12:16:22;;;;;;;1.60;1.50;;;;;;;;;;5015248;28;20029;-51
2022/05/21 12:18:50;;;;;;;3.35;1.42;;;;;;;;;;5014268;28;20022;-56
2022/05/21 12:21:37;;;;;;;2.63;1.48;;;;;;;;;;5014987;28;20045;-49
2022/05/21 12:24:08;;;;;;;2.95;1.42;;;;;;;;;;5014862;28;20477;-53
2022/05/21 12:26:37;;;;;;;2.72;1.63;;;;;;;;;;5014507;28;20474;-53
2022/05/21 12:29:08;;;;;;;12.23;1.60;;;;;;;;;;5014121;28;20113;-52
2022/05/21 12:31:41;;;;;;;3.20;1.38;;;;;;;;;;5014813;28;20294;-51
2022/05/21 12:34:21;;;;;;;18.38;1.83;;;;;;;;;;5014547;28;20026;-55
2022/05/21 12:37:02;;;;;;;2.42;1.20;;;;;;;;;;5014935;28;20022;-52
2022/05/21 12:40:00;;;;;;;2.13;1.17;;;;;;;;;;5014554;28;20026;-51
2022/05/21 12:42:39;;;;;;;1.83;1.50;;;;;;;;;;5014785;28;20030;-56
2022/05/21 12:45:05;;;;;;;33.25;3.00;;;;;;;;;;5014422;28;20482;-51
2022/05/21 12:47:33;;;;;;;1.38;1.13;;;;;;;;;;5014628;28;20378;-54
2022/05/21 12:50:03;;;;;;;3.95;1.00;;;;;;;;;;5014569;28;20026;-51
2022/05/21 12:52:54;;;;;;;5.55;1.30;;;;;;;;;;4997627;28;20057;-52
2022/05/21 12:55:31;;;;;;;1.83;1.20;;;;;;;;;;5014160;28;20045;-53
2022/05/21 12:58:12;;;;;;;27.95;3.25;;;;;;;;;;5012088;28;20466;-51
2022/05/21 13:00:45;;;;;;;2.05;1.10;;;;;;;;;;5014110;28;20034;-56
2022/05/21 13:03:11;;;;;;;2.08;1.25;;;;;;;;;;5013534;28;20045;-53
2022/05/21 13:05:47;;;;;;;1.27;1.10;;;;;;;;;;5014358;28;20045;-51
2022/05/21 13:08:13;;;;;;;8.23;1.20;;;;;;;;;;5014328;28;20018;-54
2022/05/21 13:10:40;;;;;;;1.42;1.23;;;;;;;;;;5014170;28;20034;-53
2022/05/21 13:13:17;;;;;;;4.72;0.98;;;;;;;;;;5014025;28;20025;-54
2022/05/21 13:15:46;;;;;;;8.65;1.38;;;;;;;;;;5013907;28;20108;-51
2022/05/21 13:18:33;;;;;;;8.03;1.40;;;;;;;;;;5013871;28;20470;-55
2022/05/21 13:21:41;;;;;;;1.67;1.02;;;;;;;;;;5013874;28;20057;-55
2022/05/21 13:24:45;;;;;;;8.95;1.90;;;;;;;;;;4987581;28;20095;-55
2022/05/21 13:27:17;;;;;;;6.53;1.40;;;;;;;;;;5013997;28;20080;-51
2022/05/21 13:29:44;;;;;;;15.55;1.65;;;;;;;;;;5013402;28;20030;-45
2022/05/21 13:32:36;;;;;;;3.42;1.30;;;;;;;;;;5013357;28;20054;-46
2022/05/21 13:35:17;;;;;;;2.47;0.98;;;;;;;;;;5013526;28;20025;-46
2022/05/21 13:37:44;;;;;;;1.30;1.20;;;;;;;;;;5013691;28;20018;-46
2022/05/21 13:40:23;;;;;;;5.13;1.30;;;;;;;;;;5013228;28;20034;-46
2022/05/21 13:42:51;;;;;;;1.13;1.03;;;;;;;;;;5013472;28;20048;-47
2022/05/21 13:45:21;;;;;;;12.35;1.77;;;;;;;;;;5013344;28;20029;-47
2022/05/21 13:47:54;;;;;;;4.50;1.13;;;;;;;;;;5013222;28;20080;-46
2022/05/21 13:50:23;;;;;;;5.50;1.20;;;;;;;;;;5013146;28;20026;-46
2022/05/21 13:52:50;;;;;;;3.15;1.55;;;;;;;;;;4995556;28;20022;-46
2022/05/21 13:55:15;;;;;;;6.20;1.25;;;;;;;;;;5013072;28;20037;-47
2022/05/21 13:57:42;;;;;;;1.20;1.10;;;;;;;;;;5013033;28;20026;-47
2022/05/21 14:00:28;;;;;;;2.25;1.10;;;;;;;;;;5012610;28;20185;-50
2022/05/21 14:02:55;;;;;;;2.65;1.27;;;;;;;;;;5013003;28;20061;-46
2022/05/21 14:05:46;;;;;;;1.95;1.40;;;;;;;;;;4995513;28;20042;-46
2022/05/21 14:08:21;;;;;;;2.70;1.30;;;;;;;;;;5013401;28;20038;-46
2022/05/21 14:11:00;;;;;;;2.58;1.15;;;;;;;;;;5049872;28;20029;-44
2022/05/21 14:13:34;;;;;;;3.75;1.30;;;;;;;;;;5052478;28;20025;-48
2022/05/21 14:16:03;;;;;;;3.53;1.20;;;;;;;;;;5052421;28;20060;-47
2022/05/21 14:18:29;;;;;;;;;;;;;;;;;;5052870;28;20033;-46
2022/05/21 14:21:01;;;;;;;14.75;1.98;;;;;;;;;;5052513;28;19913;-44
2022/05/21 14:23:37;;;;;;;4.63;1.30;;;;;;;;;;5052446;28;20496;-45
2022/05/21 14:26:21;;;;;;;3.33;1.50;;;;;;;;;;5052183;28;20037;-44
2022/05/21 14:28:47;;;;;;;9.45;1.48;;;;;;;;;;5052421;28;20064;-48
2022/05/21 14:31:39;;;;;;;3.95;1.67;;;;;;;;;;5052260;28;20468;-45
2022/05/21 14:34:19;;;;;;;4.72;1.40;;;;;;;;;;5052464;28;20435;-47
2022/05/21 14:36:47;;;;;;;1.75;1.40;;;;;;;;;;5052193;28;20105;-44
2022/05/21 14:39:13;;;;;;;3.50;1.30;;;;;;;;;;5052399;28;20025;-46
2022/05/21 14:41:48;;;;;;;4.65;1.50;;;;;;;;;;5051890;28;20056;-46
2022/05/21 14:44:16;;;;;;;11.07;2.25;;;;;;;;;;5052056;28;20029;-48
2022/05/21 14:49:27;;;;;;;2.08;1.35;;;;;;;;;;5052303;28;20032;-46
2022/05/21 14:54:40;;;;;;;3.78;1.25;;;;;;;;;;5052313;28;20503;-40
2022/05/21 14:57:08;;;;;;;3.10;1.50;;;;;;;;;;5052198;28;20028;-46
2022/05/21 14:59:34;;;;;;;1.83;1.40;;;;;;;;;;5046287;28;20028;-45
2022/05/21 15:01:59;;;;;;;4.00;2.03;;;;;;;;;;5031837;28;20112;-45
2022/05/21 15:04:25;;;;;;;8.70;1.38;;;;;;;;;;5031478;28;20087;-47
2022/05/21 15:06:52;;;;;;;4.68;1.33;;;;;;;;;;5032278;28;20021;-46
2022/05/21 15:09:17;;;;;;;3.85;1.60;;;;;;;;;;5032922;28;20427;-47
2022/05/21 15:11:43;;;;;;;24.17;1.67;;;;;;;;;;5031842;28;20021;-46
2022/05/21 15:14:10;;;;;;;3.05;1.30;;;;;;;;;;5031988;28;20084;-43
2022/05/21 15:16:36;;;;;;;7.07;1.35;;;;;;;;;;5031882;28;20104;-43
2022/05/21 15:19:01;;;;;;;6.03;1.23;;;;;;;;;;5039780;28;20112;-45
2022/05/21 15:21:30;;;;;;;4.10;1.30;;;;;;;;;;5041710;28;20120;-45
2022/05/21 15:23:56;;;;;;;7.40;1.80;;;;;;;;;;5043377;28;20386;-42
2022/05/21 15:26:25;;;;;;;9.05;1.52;;;;;;;;;;5044818;28;20032;-44
2022/05/21 15:28:52;;;;;;;15.85;1.70;;;;;;;;;;5045057;28;20014;-44
2022/05/21 15:31:18;;;;;;;1.77;1.02;;;;;;;;;;5043223;28;20021;-43
2022/05/21 15:33:44;;;;;;;6.10;1.15;;;;;;;;;;5045017;28;20109;-46
2022/05/21 15:36:10;;;;;;;12.85;1.50;;;;;;;;;;5044812;28;20030;-44
2022/05/21 15:38:35;;;;;;;8.48;1.60;;;;;;;;;;5043170;28;20520;-43
2022/05/21 15:41:01;;;;;;;1.38;1.05;;;;;;;;;;5045162;28;20050;-46